createdAt,value
2018-02-25T00:02:18.726Z,7.46
2018-02-25T00:04:46.761Z,7.59
2018-02-25T00:07:14.794Z,7.58
2018-02-25T00:09:42.737Z,7.61
2018-02-25T00:12:10.693Z,7.54
2018-02-25T00:14:38.666Z,7.77
2018-02-25T00:17:06.592Z,8.10
2018-02-25T00:19:34.591Z,7.80
2018-02-25T00:22:02.532Z,7.57
2018-02-25T00:24:30.542Z,7.83
2018-02-25T00:26:58.694Z,7.88
2018-02-25T00:29:26.641Z,7.49
2018-02-25T00:31:54.598Z,7.51
2018-02-25T00:34:22.867Z,7.91
2018-02-25T00:36:50.820Z,8.18
2018-02-25T00:39:18.803Z,8.08
2018-02-25T00:41:46.719Z,8.17
2018-02-25T00:44:14.746Z,8.57
2018-02-25T00:46:42.691Z,8.63
2018-02-25T00:49:10.617Z,8.43
2018-02-25T00:51:38.626Z,7.97
2018-02-25T00:54:06.671Z,8.43
2018-02-25T00:56:34.706Z,8.61
2018-02-25T00:59:02.663Z,8.45
2018-02-25T01:01:30.686Z,8.42
2018-02-25T01:03:58.653Z,8.59
2018-02-25T01:06:26.590Z,8.56
2018-02-25T01:08:54.543Z,8.23
2018-02-25T01:11:22.517Z,8.19
2018-02-25T01:13:50.442Z,8.32
2018-02-25T01:16:18.356Z,8.34
2018-02-25T01:18:46.298Z,8.58
2018-02-25T01:21:14.290Z,8.66
2018-02-25T01:23:42.267Z,8.63
2018-02-25T01:26:10.293Z,8.65
2018-02-25T01:28:38.355Z,8.62
2018-02-25T01:31:06.327Z,8.67
2018-02-25T01:33:34.361Z,8.42
2018-02-25T01:36:02.379Z,8.32
2018-02-25T01:38:30.365Z,8.63
2018-02-25T01:40:58.309Z,8.82
2018-02-25T01:43:26.234Z,8.74
2018-02-25T01:45:54.261Z,8.57
2018-02-25T01:48:22.230Z,7.81
2018-02-25T01:51:01.913Z,8.64
2018-02-25T01:53:29.827Z,8.67
2018-02-25T01:55:57.786Z,8.72
2018-02-25T01:58:25.977Z,8.68
2018-02-25T02:00:53.978Z,8.68
2018-02-25T02:03:21.902Z,8.79
2018-02-25T02:05:49.944Z,8.77
2018-02-25T02:08:17.946Z,8.82
2018-02-25T02:10:45.855Z,8.81
2018-02-25T02:13:13.749Z,8.81
2018-02-25T02:15:41.748Z,8.83
2018-02-25T02:18:09.765Z,8.56
2018-02-25T02:20:37.738Z,8.57
2018-02-25T02:23:05.765Z,7.68
2018-02-25T02:25:33.741Z,8.65
2018-02-25T02:28:01.697Z,8.69
2018-02-25T02:30:29.671Z,8.35
2018-02-25T02:32:57.705Z,8.40
2018-02-25T02:35:25.664Z,8.14
2018-02-25T02:37:54.299Z,8.31
2018-02-25T02:40:22.291Z,8.55
2018-02-25T02:42:50.239Z,8.52
2018-02-25T02:45:18.230Z,8.59
2018-02-25T02:47:46.148Z,8.65
2018-02-25T02:50:14.102Z,8.52
2018-02-25T02:52:42.089Z,7.95
2018-02-25T02:55:10.035Z,8.17
2018-02-25T02:57:38.044Z,8.34
2018-02-25T03:00:05.993Z,8.51
2018-02-25T03:02:33.979Z,8.13
2018-02-25T03:05:02.035Z,8.31
2018-02-25T03:07:30.016Z,8.39
2018-02-25T03:09:58.021Z,8.30
2018-02-25T03:12:25.954Z,8.40
2018-02-25T03:14:53.931Z,8.32
2018-02-25T03:17:21.838Z,8.42
2018-02-25T03:19:49.867Z,8.51
2018-02-25T03:22:17.846Z,8.49
2018-02-25T03:24:45.766Z,8.50
2018-02-25T03:27:13.764Z,8.49
2018-02-25T03:29:41.776Z,8.57
2018-02-25T03:32:09.728Z,8.47
2018-02-25T03:34:37.662Z,8.34
2018-02-25T03:37:05.765Z,8.39
2018-02-25T03:39:34.141Z,8.49
2018-02-25T03:42:02.154Z,8.53
2018-02-25T03:44:30.098Z,8.60
2018-02-25T03:46:58.112Z,8.59
2018-02-25T03:49:26.047Z,8.58
2018-02-25T03:51:54.046Z,8.59
2018-02-25T03:54:21.955Z,8.41
2018-02-25T03:56:49.939Z,8.51
2018-02-25T03:59:17.899Z,8.48
2018-02-25T04:01:45.826Z,8.56
2018-02-25T04:04:13.743Z,8.61
2018-02-25T04:06:41.621Z,8.75
2018-02-25T04:09:09.555Z,8.70
2018-02-25T04:11:37.618Z,8.49
2018-02-25T04:14:05.561Z,8.57
2018-02-25T04:16:33.487Z,8.81
2018-02-25T04:19:01.482Z,9.00
2018-02-25T04:21:29.488Z,9.03
2018-02-25T04:23:57.438Z,9.00
2018-02-25T04:26:25.376Z,8.84
2018-02-25T04:28:53.322Z,8.71
2018-02-25T04:31:21.350Z,8.89
2018-02-25T04:33:49.284Z,9.06
2018-02-25T04:36:17.404Z,9.15
2018-02-25T04:38:45.317Z,9.27
2018-02-25T04:41:13.637Z,8.77
2018-02-25T04:43:41.586Z,9.05
2018-02-25T04:46:09.621Z,9.22
2018-02-25T04:48:37.623Z,8.70
2018-02-25T04:51:05.681Z,8.27
2018-02-25T04:53:33.708Z,8.64
2018-02-25T04:56:01.714Z,8.75
2018-02-25T04:58:29.694Z,8.23
2018-02-25T05:00:57.589Z,8.39
2018-02-25T05:03:25.608Z,8.16
2018-02-25T05:05:53.535Z,7.51
2018-02-25T05:08:21.490Z,7.25
2018-02-25T05:10:49.393Z,7.78
2018-02-25T05:13:17.405Z,7.91
2018-02-25T05:15:45.383Z,7.72
2018-02-25T05:18:13.371Z,8.03
2018-02-25T05:20:41.397Z,7.83
2018-02-25T05:23:09.367Z,7.76
2018-02-25T05:25:37.357Z,8.33
2018-02-25T05:28:05.291Z,8.16
2018-02-25T05:30:33.289Z,8.29
2018-02-25T05:33:01.223Z,8.55
2018-02-25T05:35:29.222Z,8.49
2018-02-25T05:37:57.295Z,8.32
2018-02-25T05:40:25.253Z,8.20
2018-02-25T05:42:53.666Z,7.84
2018-02-25T05:45:21.616Z,8.06
2018-02-25T05:47:49.542Z,7.69
2018-02-25T05:50:17.515Z,7.68
2018-02-25T05:52:45.470Z,7.97
2018-02-25T05:55:13.473Z,7.85
2018-02-25T05:57:41.542Z,8.15
2018-02-25T06:00:09.511Z,8.43
2018-02-25T06:02:37.463Z,8.25
2018-02-25T06:05:05.364Z,8.41
2018-02-25T06:07:33.288Z,8.49
2018-02-25T06:10:01.222Z,8.37
2018-02-25T06:12:29.173Z,7.80
2018-02-25T06:14:57.157Z,7.95
2018-02-25T06:17:25.109Z,7.51
2018-02-25T06:19:53.153Z,7.82
2018-02-25T06:22:21.110Z,8.03
2018-02-25T06:24:49.046Z,7.88
2018-02-25T06:27:17.022Z,7.26
2018-02-25T06:29:45.109Z,7.41
2018-02-25T06:32:13.151Z,7.63
2018-02-25T06:34:41.157Z,8.09
2018-02-25T06:37:09.212Z,8.35
2018-02-25T06:39:37.171Z,7.96
2018-02-25T06:42:05.148Z,7.23
2018-02-25T06:44:33.502Z,6.96
2018-02-25T06:47:01.518Z,6.93
2018-02-25T06:49:29.501Z,6.59
2018-02-25T06:51:57.412Z,6.94
2018-02-25T06:54:25.430Z,7.46
2018-02-25T06:56:53.396Z,7.64
2018-02-25T06:59:21.326Z,7.94
2018-02-25T07:01:50.201Z,7.72
2018-02-25T07:04:18.162Z,7.25
2018-02-25T07:06:46.151Z,7.64
2018-02-25T07:09:14.153Z,7.51
2018-02-25T07:11:42.106Z,7.65
2018-02-25T07:14:10.054Z,7.74
2018-02-25T07:16:38.028Z,7.86
2018-02-25T07:19:06.105Z,7.72
2018-02-25T07:21:34.007Z,7.62
2018-02-25T07:24:01.973Z,7.36
2018-02-25T07:26:29.935Z,6.98
2018-02-25T07:28:58.798Z,6.97
2018-02-25T07:31:26.770Z,7.25
2018-02-25T07:33:54.738Z,6.74
2018-02-25T07:36:22.736Z,6.97
2018-02-25T07:38:50.641Z,6.49
2018-02-25T07:41:18.582Z,6.99
2018-02-25T07:43:46.481Z,6.91
2018-02-25T07:46:14.750Z,7.09
2018-02-25T07:48:42.682Z,7.44
2018-02-25T07:51:10.637Z,6.89
2018-02-25T07:53:38.642Z,6.74
2018-02-25T07:56:06.588Z,6.48
2018-02-25T07:58:34.591Z,6.59
2018-02-25T08:01:02.507Z,6.32
2018-02-25T08:03:30.525Z,6.33
2018-02-25T08:05:58.533Z,6.25
2018-02-25T08:08:26.494Z,6.64
2018-02-25T08:10:54.587Z,6.03
2018-02-25T08:13:22.545Z,6.05
2018-02-25T08:15:50.622Z,5.76
2018-02-25T08:18:18.627Z,5.77
2018-02-25T08:20:46.559Z,5.86
2018-02-25T08:23:14.526Z,6.11
2018-02-25T08:25:42.465Z,5.70
2018-02-25T08:28:10.430Z,5.56
2018-02-25T08:30:38.438Z,5.94
2018-02-25T08:33:06.400Z,5.74
2018-02-25T08:35:34.539Z,5.41
2018-02-25T08:38:03.147Z,5.91
2018-02-25T08:40:31.099Z,5.98
2018-02-25T08:42:59.233Z,6.14
2018-02-25T08:45:27.192Z,5.54
2018-02-25T08:47:55.613Z,6.02
2018-02-25T08:50:23.591Z,5.99
2018-02-25T08:52:51.566Z,6.19
2018-02-25T08:55:19.518Z,6.42
2018-02-25T08:57:47.491Z,6.59
2018-02-25T09:00:15.453Z,6.15
2018-02-25T09:02:43.387Z,6.07
2018-02-25T09:05:11.936Z,5.85
2018-02-25T09:07:39.874Z,5.80
2018-02-25T09:10:08.028Z,5.71
2018-02-25T09:12:36.002Z,5.75
2018-02-25T09:15:03.973Z,5.72
2018-02-25T09:17:31.947Z,5.59
2018-02-25T09:19:59.870Z,5.57
2018-02-25T09:22:27.905Z,5.86
2018-02-25T09:24:55.850Z,5.51
2018-02-25T09:27:24.500Z,5.70
2018-02-25T09:29:52.479Z,5.75
2018-02-25T09:32:20.470Z,5.98
2018-02-25T09:34:48.506Z,5.62
2018-02-25T09:37:16.454Z,5.71
2018-02-25T09:39:44.453Z,5.75
2018-02-25T09:42:12.364Z,5.76
2018-02-25T09:44:40.283Z,6.16
2018-02-25T09:47:08.234Z,6.74
2018-02-25T09:49:36.455Z,6.98
2018-02-25T09:52:04.430Z,6.85
2018-02-25T09:54:32.345Z,6.70
2018-02-25T09:57:00.524Z,6.60
2018-02-25T09:59:32.443Z,6.68
2018-02-25T10:02:00.474Z,6.42
2018-02-25T10:04:28.397Z,6.27
2018-02-25T10:06:56.413Z,6.11
2018-02-25T10:09:24.397Z,6.16
2018-02-25T10:11:52.341Z,6.20
2018-02-25T10:14:20.352Z,6.26
2018-02-25T10:16:48.306Z,5.96
2018-02-25T10:19:16.255Z,6.09
2018-02-25T10:21:44.382Z,5.85
2018-02-25T10:24:12.417Z,5.90
2018-02-25T10:26:40.352Z,6.14
2018-02-25T10:29:08.305Z,5.99
2018-02-25T10:31:36.273Z,6.31
2018-02-25T10:34:04.251Z,6.21
2018-02-25T10:36:32.266Z,5.99
2018-02-25T10:39:00.480Z,6.17
2018-02-25T10:41:28.495Z,6.05
2018-02-25T10:43:56.443Z,5.79
2018-02-25T10:46:24.380Z,5.67
2018-02-25T10:48:52.342Z,5.83
2018-02-25T10:51:20.696Z,5.70
2018-02-25T10:53:48.665Z,5.66
2018-02-25T10:56:16.650Z,5.76
2018-02-25T10:58:44.639Z,5.83
2018-02-25T11:01:12.602Z,5.98
2018-02-25T11:03:40.546Z,5.82
2018-02-25T11:06:08.466Z,5.47
2018-02-25T11:08:36.385Z,5.54
2018-02-25T11:11:04.359Z,5.37
2018-02-25T11:13:32.689Z,5.43
2018-02-25T11:16:00.701Z,5.46
2018-02-25T11:18:28.717Z,5.64
2018-02-25T11:20:56.686Z,5.68
2018-02-25T11:23:24.729Z,5.46
2018-02-25T11:25:52.652Z,5.55
2018-02-25T11:28:20.544Z,5.42
2018-02-25T11:30:48.476Z,5.45
2018-02-25T11:33:16.441Z,5.22
2018-02-25T11:35:44.438Z,5.80
2018-02-25T11:38:12.424Z,5.37
2018-02-25T11:40:40.364Z,5.51
2018-02-25T11:43:08.286Z,5.67
2018-02-25T11:45:36.302Z,5.84
2018-02-25T11:48:04.311Z,6.05
2018-02-25T11:50:32.258Z,5.49
2018-02-25T11:53:00.639Z,5.44
2018-02-25T11:55:28.581Z,5.46
2018-02-25T11:57:56.569Z,5.45
2018-02-25T12:00:24.493Z,5.32
2018-02-25T12:02:52.405Z,5.30
2018-02-25T12:05:20.369Z,5.02
2018-02-25T12:07:48.439Z,5.09
2018-02-25T12:10:16.410Z,5.13
2018-02-25T12:12:44.406Z,5.40
2018-02-25T12:15:12.428Z,5.39
2018-02-25T12:17:40.410Z,5.32
2018-02-25T12:20:08.317Z,5.43
2018-02-25T12:22:36.272Z,5.33
2018-02-25T12:25:04.270Z,5.24
2018-02-25T12:27:32.229Z,5.55
2018-02-25T12:30:00.155Z,5.34
2018-02-25T12:32:28.138Z,5.28
2018-02-25T12:34:56.032Z,5.39
2018-02-25T12:37:23.982Z,5.13
2018-02-25T12:39:51.965Z,4.72
2018-02-25T12:42:19.918Z,5.11
2018-02-25T12:44:47.867Z,5.14
2018-02-25T12:47:17.220Z,5.06
2018-02-25T12:49:50.776Z,5.20
2018-02-25T12:55:06.523Z,5.22
2018-02-25T12:57:41.452Z,5.02
2018-02-25T13:00:18.827Z,5.08
2018-02-25T13:02:53.921Z,4.95
2018-02-25T13:05:24.938Z,4.89
2018-02-25T13:07:54.728Z,4.58
2018-02-25T13:12:57.350Z,5.01
2018-02-25T13:15:26.763Z,4.76
2018-02-25T13:17:55.106Z,4.97
2018-02-25T13:20:25.396Z,4.96
2018-02-25T13:22:55.145Z,5.02
2018-02-25T13:45:18.468Z,5.05
2018-02-25T13:47:46.435Z,4.95
2018-02-25T13:50:14.353Z,5.07
2018-02-25T13:52:42.234Z,4.98
2018-02-25T13:55:10.519Z,4.85
2018-02-25T13:57:38.495Z,4.77
2018-02-25T14:00:06.438Z,4.77
2018-02-25T14:02:34.422Z,4.75
2018-02-25T14:05:02.406Z,4.68
2018-02-25T14:07:30.330Z,4.60
2018-02-25T14:09:58.282Z,4.37
2018-02-25T14:12:26.206Z,4.49
2018-02-25T14:14:54.193Z,4.71
2018-02-25T14:17:22.141Z,4.67
2018-02-25T14:19:50.118Z,4.74
2018-02-25T14:22:18.033Z,4.93
2018-02-25T14:24:46.007Z,4.83
2018-02-25T14:27:13.963Z,4.73
2018-02-25T14:29:41.898Z,4.77
2018-02-25T14:32:09.867Z,4.67
2018-02-25T14:34:37.863Z,4.72
2018-02-25T14:37:05.980Z,4.66
2018-02-25T14:39:37.174Z,4.62
2018-02-25T14:42:05.795Z,4.55
2018-02-25T14:44:35.914Z,4.93
2018-02-25T14:47:04.728Z,4.93
2018-02-25T14:49:33.908Z,4.60
2018-02-25T14:52:03.856Z,4.93
2018-02-25T14:54:31.828Z,4.88
2018-02-25T14:57:00.045Z,4.91
2018-02-25T14:59:28.001Z,4.69
2018-02-25T15:01:55.970Z,4.77
2018-02-25T15:04:23.983Z,4.52
2018-02-25T15:06:51.970Z,4.46
2018-02-25T15:09:19.890Z,4.95
2018-02-25T15:11:47.862Z,4.83
2018-02-25T15:14:15.846Z,4.56
2018-02-25T15:16:43.818Z,4.42
2018-02-25T15:19:11.760Z,4.63
2018-02-25T15:21:39.702Z,4.59
2018-02-25T15:24:07.690Z,4.54
2018-02-25T15:26:35.602Z,4.96
2018-02-25T15:29:03.614Z,4.43
2018-02-25T15:31:31.557Z,4.18
2018-02-25T15:33:59.551Z,4.06
2018-02-25T15:36:27.601Z,4.47
2018-02-25T15:38:55.634Z,4.26
2018-02-25T15:41:23.621Z,4.21
2018-02-25T15:43:51.595Z,4.29
2018-02-25T15:46:19.599Z,4.28
2018-02-25T15:48:47.537Z,4.09
2018-02-25T15:51:15.470Z,4.13
2018-02-25T15:53:44.483Z,4.20
2018-02-25T15:56:12.406Z,3.92
2018-02-25T15:58:40.648Z,4.17
2018-02-25T16:01:08.561Z,3.87
2018-02-25T16:03:36.502Z,3.51
2018-02-25T16:06:04.442Z,3.37
2018-02-25T16:08:32.411Z,3.42
2018-02-25T16:11:00.407Z,3.16
2018-02-25T16:13:28.358Z,3.12
2018-02-25T16:15:56.335Z,3.24
2018-02-25T16:18:25.119Z,3.18
2018-02-25T16:20:54.147Z,3.02
2018-02-25T16:23:22.139Z,3.23
2018-02-25T16:25:50.046Z,3.34
2018-02-25T16:28:18.062Z,2.99
2018-02-25T16:30:45.955Z,2.85
2018-02-25T16:33:13.871Z,2.87
2018-02-25T16:35:41.827Z,2.81
2018-02-25T16:38:09.803Z,2.81
2018-02-25T16:40:37.739Z,2.94
2018-02-25T16:43:05.764Z,2.87
2018-02-25T16:45:33.802Z,2.63
2018-02-25T16:48:01.751Z,2.73
2018-02-25T16:50:30.512Z,2.69
2018-02-25T16:52:58.568Z,2.74
2018-02-25T16:55:26.562Z,2.89
2018-02-25T16:57:54.488Z,2.89
2018-02-25T17:00:22.993Z,2.80
2018-02-25T17:02:51.031Z,2.13
2018-02-25T17:05:18.982Z,2.62
2018-02-25T17:07:47.006Z,2.97
2018-02-25T17:10:15.003Z,3.03
2018-02-25T17:12:42.942Z,2.73
2018-02-25T17:15:10.934Z,2.98
2018-02-25T17:17:38.878Z,2.84
2018-02-25T17:20:06.975Z,2.73
2018-02-25T17:22:34.923Z,2.88
2018-02-25T17:25:02.882Z,3.39
2018-02-25T17:27:30.869Z,2.72
2018-02-25T17:29:58.895Z,2.71
2018-02-25T17:32:26.842Z,2.41
2018-02-25T17:34:54.856Z,2.40
2018-02-25T17:37:22.822Z,2.55
2018-02-25T17:39:50.897Z,2.79
2018-02-25T17:42:18.843Z,2.90
2018-02-25T17:44:46.770Z,2.70
2018-02-25T17:47:14.781Z,2.81
2018-02-25T17:49:42.765Z,2.79
2018-02-25T17:52:10.746Z,2.60
2018-02-25T17:54:38.706Z,2.81
2018-02-25T17:57:06.635Z,2.88
2018-02-25T17:59:34.631Z,2.66
2018-02-25T18:02:02.937Z,2.58
2018-02-25T18:04:30.827Z,2.79
2018-02-25T18:06:58.801Z,2.92
2018-02-25T18:09:26.900Z,3.42
2018-02-25T18:11:54.885Z,3.57
2018-02-25T18:14:22.808Z,3.01
2018-02-25T18:16:50.783Z,3.06
2018-02-25T18:19:18.761Z,3.06
2018-02-25T18:21:46.735Z,3.38
2018-02-25T18:24:14.672Z,3.78
2018-02-25T18:26:42.678Z,3.64
2018-02-25T18:29:10.619Z,3.63
2018-02-25T18:31:38.618Z,3.68
2018-02-25T18:34:06.670Z,3.85
2018-02-25T18:36:34.574Z,3.33
2018-02-25T18:39:02.544Z,3.42
2018-02-25T18:41:30.595Z,3.39
2018-02-25T18:43:58.499Z,3.56
2018-02-25T18:46:26.449Z,3.86
2018-02-25T18:48:54.425Z,3.97
2018-02-25T18:51:22.327Z,3.22
2018-02-25T18:53:50.382Z,3.33
2018-02-25T18:56:18.374Z,3.72
2018-02-25T18:58:46.374Z,3.45
2018-02-25T19:01:14.325Z,3.30
2018-02-25T19:03:42.651Z,3.58
2018-02-25T19:06:10.684Z,3.58
2018-02-25T19:08:38.657Z,3.61
2018-02-25T19:11:06.646Z,3.25
2018-02-25T19:13:34.619Z,3.49
2018-02-25T19:16:02.558Z,3.40
2018-02-25T19:18:30.651Z,3.19
2018-02-25T19:20:58.698Z,3.29
2018-02-25T19:23:26.670Z,3.13
2018-02-25T19:25:54.692Z,3.48
2018-02-25T19:28:22.647Z,3.26
2018-02-25T19:30:50.566Z,3.15
2018-02-25T19:33:18.587Z,3.50
2018-02-25T19:35:51.882Z,3.52
2018-02-25T19:41:31.615Z,3.33
2018-02-25T19:43:59.514Z,3.36
2018-02-25T19:46:27.465Z,3.02
2018-02-25T19:48:56.329Z,3.15
2018-02-25T19:51:24.371Z,3.52
2018-02-25T19:53:52.266Z,3.42
2018-02-25T19:56:20.213Z,3.15
2018-02-25T19:58:48.105Z,3.56
2018-02-25T20:01:16.002Z,4.06
2018-02-25T20:03:44.307Z,4.12
2018-02-25T20:06:13.108Z,4.53
2018-02-25T20:08:41.135Z,4.63
2018-02-25T20:11:09.107Z,4.77
2018-02-25T20:13:37.094Z,4.80
2018-02-25T20:16:05.038Z,4.62
2018-02-25T20:18:33.035Z,4.66
2018-02-25T20:21:01.011Z,4.49
2018-02-25T20:23:28.957Z,4.38
2018-02-25T20:25:56.917Z,4.87
2018-02-25T20:28:24.914Z,5.08
2018-02-25T20:30:52.845Z,4.96
2018-02-25T20:33:20.814Z,4.94
2018-02-25T20:35:48.737Z,4.79
2018-02-25T20:38:16.683Z,4.79
2018-02-25T20:40:44.630Z,4.85
2018-02-25T20:43:12.614Z,4.41
2018-02-25T20:45:40.602Z,4.66
2018-02-25T20:48:08.557Z,4.46
2018-02-25T20:50:36.527Z,4.43
2018-02-25T20:53:04.425Z,4.67
2018-02-25T20:55:32.414Z,4.64
2018-02-25T20:58:00.354Z,4.41
2018-02-25T21:00:28.326Z,4.53
2018-02-25T21:02:56.266Z,4.73
2018-02-25T21:05:24.614Z,4.31
2018-02-25T21:07:52.619Z,4.62
2018-02-25T21:10:20.573Z,4.63
2018-02-25T21:12:48.470Z,4.76
2018-02-25T21:15:16.382Z,5.02
2018-02-25T21:17:44.327Z,4.96
2018-02-25T21:20:12.170Z,5.07
2018-02-25T21:22:40.267Z,5.22
2018-02-25T21:25:08.310Z,5.24
2018-02-25T21:27:36.232Z,5.28
2018-02-25T21:30:04.210Z,5.01
2018-02-25T21:32:32.171Z,4.92
2018-02-25T21:35:00.163Z,4.92
2018-02-25T21:37:28.064Z,5.08
2018-02-25T21:39:56.093Z,5.11
2018-02-25T21:42:24.098Z,4.47
2018-02-25T21:44:52.082Z,4.30
2018-02-25T21:47:20.005Z,4.45
2018-02-25T21:49:48.001Z,4.34
2018-02-25T21:52:16.018Z,4.57
2018-02-25T21:54:49.525Z,4.09
2018-02-25T21:57:23.002Z,4.61
2018-02-25T21:59:56.567Z,4.81
2018-02-25T22:02:30.155Z,4.72
2018-02-25T22:04:58.098Z,4.83
2018-02-25T22:07:27.019Z,4.99
2018-02-25T22:09:54.937Z,4.99
2018-02-25T22:12:22.891Z,4.49
2018-02-25T22:14:50.794Z,4.83
2018-02-25T22:17:18.729Z,5.03
2018-02-25T22:19:46.662Z,4.77
2018-02-25T22:22:14.602Z,5.04
2018-02-25T22:24:42.565Z,5.01
2018-02-25T22:27:10.463Z,4.90
2018-02-25T22:29:38.398Z,5.11
2018-02-25T22:32:06.389Z,5.26
2018-02-25T22:34:34.342Z,5.34
2018-02-25T22:37:02.247Z,5.25
2018-02-25T22:39:30.760Z,5.27
2018-02-25T22:41:58.960Z,5.25
2018-02-25T22:44:27.712Z,5.15
2018-02-25T22:46:56.157Z,5.13
2018-02-25T22:49:24.470Z,5.36
2018-02-25T22:51:53.059Z,5.33
2018-02-25T22:54:21.539Z,5.08
2018-02-25T22:56:49.910Z,4.81
2018-02-25T22:59:18.065Z,4.97
2018-02-25T23:01:46.873Z,4.73
2018-02-25T23:04:15.562Z,4.62
2018-02-25T23:06:43.729Z,5.06
2018-02-25T23:09:12.722Z,5.30
2018-02-25T23:11:41.205Z,5.32
2018-02-25T23:14:09.762Z,5.20
2018-02-25T23:16:38.165Z,5.23
2018-02-25T23:19:06.631Z,5.46
2018-02-25T23:21:34.906Z,5.51
2018-02-25T23:24:03.403Z,5.53
2018-02-25T23:26:31.787Z,5.36
2018-02-25T23:29:00.269Z,5.12
2018-02-25T23:31:28.640Z,5.19
2018-02-25T23:33:57.118Z,4.96
2018-02-25T23:36:25.497Z,4.84
2018-02-25T23:38:54.182Z,5.13
2018-02-25T23:41:22.361Z,5.15
2018-02-25T23:43:50.743Z,5.28
2018-02-25T23:46:19.221Z,5.33
2018-02-25T23:48:47.593Z,5.49
2018-02-25T23:51:16.073Z,5.58
2018-02-25T23:53:44.571Z,5.45
2018-02-25T23:56:12.930Z,5.55
2018-02-25T23:58:41.723Z,5.48
